sensor_id;sensor_type;location;lat;lon;timestamp;temperature;humidity
70708;SHT30;58277;47.316;18.908;2022-11-15T00:01:40;5.50;92.17
70708;SHT30;58277;47.316;18.908;2022-11-15T00:04:22;5.50;92.39
70708;SHT30;58277;47.316;18.908;2022-11-15T00:07:04;5.57;92.06
70708;SHT30;58277;47.316;18.908;2022-11-15T00:09:48;5.33;92.01
70708;SHT30;58277;47.316;18.908;2022-11-15T00:12:28;5.26;92.44
70708;SHT30;58277;47.316;18.908;2022-11-15T00:15:10;5.19;92.69
70708;SHT30;58277;47.316;18.908;2022-11-15T00:17:51;5.32;92.66
70708;SHT30;58277;47.316;18.908;2022-11-15T00:20:34;5.25;92.77
70708;SHT30;58277;47.316;18.908;2022-11-15T00:23:16;5.26;92.89
70708;SHT30;58277;47.316;18.908;2022-11-15T00:25:57;5.37;92.89
70708;SHT30;58277;47.316;18.908;2022-11-15T00:28:40;5.33;92.81
70708;SHT30;58277;47.316;18.908;2022-11-15T00:31:21;5.47;92.64
70708;SHT30;58277;47.316;18.908;2022-11-15T00:34:01;5.51;92.13
70708;SHT30;58277;47.316;18.908;2022-11-15T00:36:42;5.54;92.16
70708;SHT30;58277;47.316;18.908;2022-11-15T00:39:24;5.54;91.89
70708;SHT30;58277;47.316;18.908;2022-11-15T00:42:04;5.63;91.83
70708;SHT30;58277;47.316;18.908;2022-11-15T00:44:45;5.73;91.32
70708;SHT30;58277;47.316;18.908;2022-11-15T00:47:27;5.87;91.14
70708;SHT30;58277;47.316;18.908;2022-11-15T00:50:09;5.83;90.85
70708;SHT30;58277;47.316;18.908;2022-11-15T00:52:55;5.83;90.72
70708;SHT30;58277;47.316;18.908;2022-11-15T00:55:36;5.78;90.69
70708;SHT30;58277;47.316;18.908;2022-11-15T00:58:17;5.61;91.15
70708;SHT30;58277;47.316;18.908;2022-11-15T01:01:06;5.51;91.57
70708;SHT30;58277;47.316;18.908;2022-11-15T01:03:48;5.47;91.59
70708;SHT30;58277;47.316;18.908;2022-11-15T01:06:29;5.51;91.51
70708;SHT30;58277;47.316;18.908;2022-11-15T01:09:11;5.50;91.43
70708;SHT30;58277;47.316;18.908;2022-11-15T01:11:52;5.60;91.50
70708;SHT30;58277;47.316;18.908;2022-11-15T01:14:33;5.65;91.23
70708;SHT30;58277;47.316;18.908;2022-11-15T01:17:14;5.60;91.41
70708;SHT30;58277;47.316;18.908;2022-11-15T01:19:57;5.70;91.56
70708;SHT30;58277;47.316;18.908;2022-11-15T01:22:38;5.87;91.09
70708;SHT30;58277;47.316;18.908;2022-11-15T01:25:19;6.01;90.65
70708;SHT30;58277;47.316;18.908;2022-11-15T01:28:00;6.18;90.31
70708;SHT30;58277;47.316;18.908;2022-11-15T01:30:41;6.08;90.19
70708;SHT30;58277;47.316;18.908;2022-11-15T01:33:23;6.09;89.98
70708;SHT30;58277;47.316;18.908;2022-11-15T01:36:11;6.26;89.64
70708;SHT30;58277;47.316;18.908;2022-11-15T01:38:54;6.12;90.10
70708;SHT30;58277;47.316;18.908;2022-11-15T01:41:35;5.98;90.54
70708;SHT30;58277;47.316;18.908;2022-11-15T01:44:42;5.99;90.19
70708;SHT30;58277;47.316;18.908;2022-11-15T01:47:48;5.84;90.94
70708;SHT30;58277;47.316;18.908;2022-11-15T01:50:33;5.74;91.19
70708;SHT30;58277;47.316;18.908;2022-11-15T01:53:14;5.61;91.50
70708;SHT30;58277;47.316;18.908;2022-11-15T01:55:56;5.71;91.67
70708;SHT30;58277;47.316;18.908;2022-11-15T01:58:38;5.71;91.47
70708;SHT30;58277;47.316;18.908;2022-11-15T02:01:21;5.54;91.86
70708;SHT30;58277;47.316;18.908;2022-11-15T02:04:07;5.43;92.37
70708;SHT30;58277;47.316;18.908;2022-11-15T02:06:50;5.44;92.63
70708;SHT30;58277;47.316;18.908;2022-11-15T02:09:36;5.47;92.65
70708;SHT30;58277;47.316;18.908;2022-11-15T02:12:20;5.48;92.77
70708;SHT30;58277;47.316;18.908;2022-11-15T02:15:02;5.50;92.64
70708;SHT30;58277;47.316;18.908;2022-11-15T02:30:00;5.75;91.94
70708;SHT30;58277;47.316;18.908;2022-11-15T02:32:58;5.71;91.78
70708;SHT30;58277;47.316;18.908;2022-11-15T02:36:00;5.79;91.51
70708;SHT30;58277;47.316;18.908;2022-11-15T02:38:54;5.99;91.30
70708;SHT30;58277;47.316;18.908;2022-11-15T02:41:57;5.85;91.34
70708;SHT30;58277;47.316;18.908;2022-11-15T02:44:43;5.98;91.38
70708;SHT30;58277;47.316;18.908;2022-11-15T02:47:27;5.85;91.39
70708;SHT30;58277;47.316;18.908;2022-11-15T02:50:14;5.90;91.56
70708;SHT30;58277;47.316;18.908;2022-11-15T02:52:57;5.74;91.50
70708;SHT30;58277;47.316;18.908;2022-11-15T02:55:43;5.67;92.04
70708;SHT30;58277;47.316;18.908;2022-11-15T03:04:26;5.61;92.48
70708;SHT30;58277;47.316;18.908;2022-11-15T03:07:15;5.58;92.53
70708;SHT30;58277;47.316;18.908;2022-11-15T03:18:56;5.63;92.31
70708;SHT30;58277;47.316;18.908;2022-11-15T03:21:40;5.61;92.25
70708;SHT30;58277;47.316;18.908;2022-11-15T03:24:23;5.53;92.45
70708;SHT30;58277;47.316;18.908;2022-11-15T03:27:08;5.50;92.67
70708;SHT30;58277;47.316;18.908;2022-11-15T03:30:10;5.50;92.80
70708;SHT30;58277;47.316;18.908;2022-11-15T03:32:56;5.44;93.23
70708;SHT30;58277;47.316;18.908;2022-11-15T03:35:39;5.47;93.46
70708;SHT30;58277;47.316;18.908;2022-11-15T03:38:24;5.70;93.10
70708;SHT30;58277;47.316;18.908;2022-11-15T03:41:14;5.78;92.61
70708;SHT30;58277;47.316;18.908;2022-11-15T03:49:59;6.09;91.92
70708;SHT30;58277;47.316;18.908;2022-11-15T03:52:44;6.05;91.46
70708;SHT30;58277;47.316;18.908;2022-11-15T03:55:26;5.98;91.76
70708;SHT30;58277;47.316;18.908;2022-11-15T03:58:07;6.01;91.93
70708;SHT30;58277;47.316;18.908;2022-11-15T04:00:49;5.88;92.24
70708;SHT30;58277;47.316;18.908;2022-11-15T04:03:30;5.90;92.17
70708;SHT30;58277;47.316;18.908;2022-11-15T04:06:12;5.94;92.33
70708;SHT30;58277;47.316;18.908;2022-11-15T04:08:53;6.12;91.92
70708;SHT30;58277;47.316;18.908;2022-11-15T04:11:34;6.23;91.42
70708;SHT30;58277;47.316;18.908;2022-11-15T04:14:15;6.18;91.55
70708;SHT30;58277;47.316;18.908;2022-11-15T04:16:57;6.12;91.52
70708;SHT30;58277;47.316;18.908;2022-11-15T04:19:38;6.04;91.84
70708;SHT30;58277;47.316;18.908;2022-11-15T04:22:38;5.90;92.01
70708;SHT30;58277;47.316;18.908;2022-11-15T04:25:38;5.90;92.15
70708;SHT30;58277;47.316;18.908;2022-11-15T04:28:19;5.79;92.24
70708;SHT30;58277;47.316;18.908;2022-11-15T04:31:00;5.74;92.73
70708;SHT30;58277;47.316;18.908;2022-11-15T04:33:41;5.78;92.86
70708;SHT30;58277;47.316;18.908;2022-11-15T04:36:22;5.78;92.93
70708;SHT30;58277;47.316;18.908;2022-11-15T04:39:22;6.01;92.51
70708;SHT30;58277;47.316;18.908;2022-11-15T04:42:03;6.13;92.02
70708;SHT30;58277;47.316;18.908;2022-11-15T04:44:44;6.30;91.69
70708;SHT30;58277;47.316;18.908;2022-11-15T04:47:25;6.51;91.04
70708;SHT30;58277;47.316;18.908;2022-11-15T04:50:11;6.67;90.37
70708;SHT30;58277;47.316;18.908;2022-11-15T04:52:54;6.83;90.00
70708;SHT30;58277;47.316;18.908;2022-11-15T04:55:35;6.74;89.88
70708;SHT30;58277;47.316;18.908;2022-11-15T04:58:17;6.63;90.14
70708;SHT30;58277;47.316;18.908;2022-11-15T05:00:58;6.51;90.46
70708;SHT30;58277;47.316;18.908;2022-11-15T05:04:07;6.37;90.67
70708;SHT30;58277;47.316;18.908;2022-11-15T05:07:01;6.44;90.65
70708;SHT30;58277;47.316;18.908;2022-11-15T05:09:45;6.33;90.86
70708;SHT30;58277;47.316;18.908;2022-11-15T05:12:26;6.33;91.06
70708;SHT30;58277;47.316;18.908;2022-11-15T05:15:08;6.33;91.16
70708;SHT30;58277;47.316;18.908;2022-11-15T05:17:50;6.43;91.13
70708;SHT30;58277;47.316;18.908;2022-11-15T05:20:31;6.42;91.03
70708;SHT30;58277;47.316;18.908;2022-11-15T05:23:13;6.42;91.08
70708;SHT30;58277;47.316;18.908;2022-11-15T05:25:59;6.39;91.14
70708;SHT30;58277;47.316;18.908;2022-11-15T05:28:46;6.53;90.93
70708;SHT30;58277;47.316;18.908;2022-11-15T05:31:28;6.57;91.10
70708;SHT30;58277;47.316;18.908;2022-11-15T05:34:09;6.66;90.88
70708;SHT30;58277;47.316;18.908;2022-11-15T05:36:51;6.46;90.79
70708;SHT30;58277;47.316;18.908;2022-11-15T05:39:32;6.46;91.08
70708;SHT30;58277;47.316;18.908;2022-11-15T05:42:15;6.34;91.06
70708;SHT30;58277;47.316;18.908;2022-11-15T05:44:57;6.54;90.58
70708;SHT30;58277;47.316;18.908;2022-11-15T05:47:40;6.58;90.49
70708;SHT30;58277;47.316;18.908;2022-11-15T05:50:22;6.63;90.38
70708;SHT30;58277;47.316;18.908;2022-11-15T05:53:04;6.49;91.04
70708;SHT30;58277;47.316;18.908;2022-11-15T05:55:47;6.70;90.89
70708;SHT30;58277;47.316;18.908;2022-11-15T05:58:31;6.71;90.65
70708;SHT30;58277;47.316;18.908;2022-11-15T06:01:12;6.77;90.16
70708;SHT30;58277;47.316;18.908;2022-11-15T06:03:54;6.61;90.52
70708;SHT30;58277;47.316;18.908;2022-11-15T06:06:35;6.60;90.50
70708;SHT30;58277;47.316;18.908;2022-11-15T06:09:16;6.60;90.80
70708;SHT30;58277;47.316;18.908;2022-11-15T06:11:57;6.56;90.72
70708;SHT30;58277;47.316;18.908;2022-11-15T06:14:39;6.54;91.05
70708;SHT30;58277;47.316;18.908;2022-11-15T06:17:21;6.56;90.92
70708;SHT30;58277;47.316;18.908;2022-11-15T06:20:03;6.63;90.71
70708;SHT30;58277;47.316;18.908;2022-11-15T06:22:44;6.57;91.04
70708;SHT30;58277;47.316;18.908;2022-11-15T06:25:29;6.61;91.06
70708;SHT30;58277;47.316;18.908;2022-11-15T06:28:11;6.80;90.46
70708;SHT30;58277;47.316;18.908;2022-11-15T06:30:52;6.77;90.58
70708;SHT30;58277;47.316;18.908;2022-11-15T06:33:33;6.74;90.68
70708;SHT30;58277;47.316;18.908;2022-11-15T06:36:16;6.71;90.87
70708;SHT30;58277;47.316;18.908;2022-11-15T06:38:58;6.76;91.02
70708;SHT30;58277;47.316;18.908;2022-11-15T06:41:40;6.73;91.02
70708;SHT30;58277;47.316;18.908;2022-11-15T06:44:21;6.78;91.09
70708;SHT30;58277;47.316;18.908;2022-11-15T06:47:02;6.83;90.89
70708;SHT30;58277;47.316;18.908;2022-11-15T06:49:43;6.73;90.73
70708;SHT30;58277;47.316;18.908;2022-11-15T06:52:25;6.80;91.06
70708;SHT30;58277;47.316;18.908;2022-11-15T06:55:07;6.87;90.71
70708;SHT30;58277;47.316;18.908;2022-11-15T06:57:51;6.84;90.74
70708;SHT30;58277;47.316;18.908;2022-11-15T07:00:33;6.74;91.13
70708;SHT30;58277;47.316;18.908;2022-11-15T07:03:15;6.66;91.29
70708;SHT30;58277;47.316;18.908;2022-11-15T07:05:57;6.63;91.33
70708;SHT30;58277;47.316;18.908;2022-11-15T07:08:46;6.77;91.31
70708;SHT30;58277;47.316;18.908;2022-11-15T07:11:27;6.77;91.31
70708;SHT30;58277;47.316;18.908;2022-11-15T07:14:08;6.84;90.99
70708;SHT30;58277;47.316;18.908;2022-11-15T07:16:49;6.87;90.98
70708;SHT30;58277;47.316;18.908;2022-11-15T07:19:35;6.99;90.82
70708;SHT30;58277;47.316;18.908;2022-11-15T07:22:15;6.94;90.59
70708;SHT30;58277;47.316;18.908;2022-11-15T07:24:57;7.05;90.48
70708;SHT30;58277;47.316;18.908;2022-11-15T07:27:38;7.16;90.29
70708;SHT30;58277;47.316;18.908;2022-11-15T07:30:20;7.18;90.17
70708;SHT30;58277;47.316;18.908;2022-11-15T07:33:02;7.33;89.67
70708;SHT30;58277;47.316;18.908;2022-11-15T07:35:43;7.26;89.44
70708;SHT30;58277;47.316;18.908;2022-11-15T07:38:28;7.32;89.66
70708;SHT30;58277;47.316;18.908;2022-11-15T07:41:09;7.43;89.07
70708;SHT30;58277;47.316;18.908;2022-11-15T07:43:51;7.67;88.69
70708;SHT30;58277;47.316;18.908;2022-11-15T07:46:34;7.66;88.34
70708;SHT30;58277;47.316;18.908;2022-11-15T07:49:15;7.57;88.54
70708;SHT30;58277;47.316;18.908;2022-11-15T07:51:57;7.70;88.04
70708;SHT30;58277;47.316;18.908;2022-11-15T07:54:39;7.76;87.96
70708;SHT30;58277;47.316;18.908;2022-11-15T07:57:20;7.74;87.80
70708;SHT30;58277;47.316;18.908;2022-11-15T08:00:05;7.71;88.15
70708;SHT30;58277;47.316;18.908;2022-11-15T08:02:47;7.84;87.89
70708;SHT30;58277;47.316;18.908;2022-11-15T08:05:29;7.67;88.28
70708;SHT30;58277;47.316;18.908;2022-11-15T08:08:11;7.52;88.60
70708;SHT30;58277;47.316;18.908;2022-11-15T08:10:52;7.32;89.00
70708;SHT30;58277;47.316;18.908;2022-11-15T08:13:33;7.40;89.46
70708;SHT30;58277;47.316;18.908;2022-11-15T08:16:15;7.53;89.22
70708;SHT30;58277;47.316;18.908;2022-11-15T08:18:56;7.50;88.63
70708;SHT30;58277;47.316;18.908;2022-11-15T08:21:38;7.50;89.03
70708;SHT30;58277;47.316;18.908;2022-11-15T08:24:19;7.57;89.12
70708;SHT30;58277;47.316;18.908;2022-11-15T08:27:01;7.57;88.79
70708;SHT30;58277;47.316;18.908;2022-11-15T08:29:48;7.57;88.91
70708;SHT30;58277;47.316;18.908;2022-11-15T08:32:32;7.56;88.63
70708;SHT30;58277;47.316;18.908;2022-11-15T08:35:13;7.70;88.68
70708;SHT30;58277;47.316;18.908;2022-11-15T08:37:55;7.85;88.34
70708;SHT30;58277;47.316;18.908;2022-11-15T08:40:38;7.88;88.23
70708;SHT30;58277;47.316;18.908;2022-11-15T08:43:19;7.85;87.60
70708;SHT30;58277;47.316;18.908;2022-11-15T08:46:01;7.93;88.05
70708;SHT30;58277;47.316;18.908;2022-11-15T08:48:42;8.02;87.89
70708;SHT30;58277;47.316;18.908;2022-11-15T08:51:24;8.05;87.26
70708;SHT30;58277;47.316;18.908;2022-11-15T08:54:06;8.09;87.52
70708;SHT30;58277;47.316;18.908;2022-11-15T08:56:48;8.09;87.46
70708;SHT30;58277;47.316;18.908;2022-11-15T08:59:30;8.21;87.62
70708;SHT30;58277;47.316;18.908;2022-11-15T09:02:13;8.42;87.03
70708;SHT30;58277;47.316;18.908;2022-11-15T09:04:56;8.52;86.06
70708;SHT30;58277;47.316;18.908;2022-11-15T09:07:37;8.39;86.47
70708;SHT30;58277;47.316;18.908;2022-11-15T09:10:19;8.12;87.11
70708;SHT30;58277;47.316;18.908;2022-11-15T09:13:01;8.24;86.57
70708;SHT30;58277;47.316;18.908;2022-11-15T09:15:43;8.36;86.72
70708;SHT30;58277;47.316;18.908;2022-11-15T09:18:24;8.67;86.62
70708;SHT30;58277;47.316;18.908;2022-11-15T09:21:06;8.85;85.79
70708;SHT30;58277;47.316;18.908;2022-11-15T09:23:51;8.94;85.49
70708;SHT30;58277;47.316;18.908;2022-11-15T09:26:33;9.03;84.36
70708;SHT30;58277;47.316;18.908;2022-11-15T09:29:14;8.87;83.99
70708;SHT30;58277;47.316;18.908;2022-11-15T09:31:56;8.88;84.51
70708;SHT30;58277;47.316;18.908;2022-11-15T09:34:37;8.84;84.50
70708;SHT30;58277;47.316;18.908;2022-11-15T09:37:19;8.73;85.06
70708;SHT30;58277;47.316;18.908;2022-11-15T09:40:02;8.81;85.56
70708;SHT30;58277;47.316;18.908;2022-11-15T09:51:33;8.84;85.39
70708;SHT30;58277;47.316;18.908;2022-11-15T09:54:03;9.15;84.83
70708;SHT30;58277;47.316;18.908;2022-11-15T09:56:47;8.92;84.43
70708;SHT30;58277;47.316;18.908;2022-11-15T10:04:20;8.71;85.31
70708;SHT30;58277;47.316;18.908;2022-11-15T10:06:52;8.83;85.50
70708;SHT30;58277;47.316;18.908;2022-11-15T10:09:21;8.70;85.91
70708;SHT30;58277;47.316;18.908;2022-11-15T10:11:45;8.63;85.92
70708;SHT30;58277;47.316;18.908;2022-11-15T10:14:13;8.64;86.01
70708;SHT30;58277;47.316;18.908;2022-11-15T10:22:31;8.84;85.72
70708;SHT30;58277;47.316;18.908;2022-11-15T10:25:16;8.90;85.29
70708;SHT30;58277;47.316;18.908;2022-11-15T10:27:40;8.84;85.87
70708;SHT30;58277;47.316;18.908;2022-11-15T10:30:11;8.62;85.65
70708;SHT30;58277;47.316;18.908;2022-11-15T10:32:35;8.64;86.64
70708;SHT30;58277;47.316;18.908;2022-11-15T10:34:58;8.46;86.65
70708;SHT30;58277;47.316;18.908;2022-11-15T10:37:29;8.53;86.76
70708;SHT30;58277;47.316;18.908;2022-11-15T10:40:17;8.63;86.50
70708;SHT30;58277;47.316;18.908;2022-11-15T10:42:41;8.81;86.16
70708;SHT30;58277;47.316;18.908;2022-11-15T10:45:23;8.62;85.73
70708;SHT30;58277;47.316;18.908;2022-11-15T10:47:46;8.59;86.24
70708;SHT30;58277;47.316;18.908;2022-11-15T10:50:31;8.64;86.29
70708;SHT30;58277;47.316;18.908;2022-11-15T10:52:54;8.60;86.33
70708;SHT30;58277;47.316;18.908;2022-11-15T10:57:49;8.53;86.47
70708;SHT30;58277;47.316;18.908;2022-11-15T11:07:59;8.50;86.87
70708;SHT30;58277;47.316;18.908;2022-11-15T11:10:24;8.22;87.52
70708;SHT30;58277;47.316;18.908;2022-11-15T11:13:37;8.18;87.69
70708;SHT30;58277;47.316;18.908;2022-11-15T11:16:19;8.15;88.09
70708;SHT30;58277;47.316;18.908;2022-11-15T11:22:05;8.15;88.66
70708;SHT30;58277;47.316;18.908;2022-11-15T11:24:55;8.08;89.27
70708;SHT30;58277;47.316;18.908;2022-11-15T11:30:08;8.06;89.56
70708;SHT30;58277;47.316;18.908;2022-11-15T11:32:56;8.14;89.57
70708;SHT30;58277;47.316;18.908;2022-11-15T11:48:14;8.02;89.84
70708;SHT30;58277;47.316;18.908;2022-11-15T11:50:38;7.94;90.36
70708;SHT30;58277;47.316;18.908;2022-11-15T11:53:12;7.95;91.06
70708;SHT30;58277;47.316;18.908;2022-11-15T11:55:40;8.08;90.40
70708;SHT30;58277;47.316;18.908;2022-11-15T12:00:55;8.15;90.59
70708;SHT30;58277;47.316;18.908;2022-11-15T12:11:55;8.15;89.63
70708;SHT30;58277;47.316;18.908;2022-11-15T12:14:57;7.85;90.32
70708;SHT30;58277;47.316;18.908;2022-11-15T12:17:28;7.91;91.08
70708;SHT30;58277;47.316;18.908;2022-11-15T12:19:59;8.02;91.08
70708;SHT30;58277;47.316;18.908;2022-11-15T12:22:43;8.14;90.60
70708;SHT30;58277;47.316;18.908;2022-11-15T12:27:44;8.01;90.83
70708;SHT30;58277;47.316;18.908;2022-11-15T12:30:14;8.12;90.61
70708;SHT30;58277;47.316;18.908;2022-11-15T12:32:39;8.09;90.90
70708;SHT30;58277;47.316;18.908;2022-11-15T12:35:05;8.05;90.36
70708;SHT30;58277;47.316;18.908;2022-11-15T12:45:32;8.48;89.42
70708;SHT30;58277;47.316;18.908;2022-11-15T12:58:58;8.83;88.16
70708;SHT30;58277;47.316;18.908;2022-11-15T13:07:04;8.74;87.98
70708;SHT30;58277;47.316;18.908;2022-11-15T13:11:56;8.62;88.51
70708;SHT30;58277;47.316;18.908;2022-11-15T13:19:43;8.14;89.62
70708;SHT30;58277;47.316;18.908;2022-11-15T13:22:11;8.22;89.80
70708;SHT30;58277;47.316;18.908;2022-11-15T13:24:53;8.21;90.01
70708;SHT30;58277;47.316;18.908;2022-11-15T13:27:18;8.38;89.92
70708;SHT30;58277;47.316;18.908;2022-11-15T13:29:43;8.31;89.66
70708;SHT30;58277;47.316;18.908;2022-11-15T13:32:11;8.28;89.74
70708;SHT30;58277;47.316;18.908;2022-11-15T13:34:37;8.42;89.84
70708;SHT30;58277;47.316;18.908;2022-11-15T13:37:35;8.54;89.64
70708;SHT30;58277;47.316;18.908;2022-11-15T13:42:40;8.24;89.83
70708;SHT30;58277;47.316;18.908;2022-11-15T13:45:13;8.25;90.34
70708;SHT30;58277;47.316;18.908;2022-11-15T13:47:37;8.14;90.16
70708;SHT30;58277;47.316;18.908;2022-11-15T13:50:00;8.09;90.52
70708;SHT30;58277;47.316;18.908;2022-11-15T13:52:35;7.91;90.13
70708;SHT30;58277;47.316;18.908;2022-11-15T13:55:08;7.85;90.45
70708;SHT30;58277;47.316;18.908;2022-11-15T13:57:45;7.81;90.61
70708;SHT30;58277;47.316;18.908;2022-11-15T14:00:35;7.93;91.17
70708;SHT30;58277;47.316;18.908;2022-11-15T14:03:13;7.87;90.98
70708;SHT30;58277;47.316;18.908;2022-11-15T14:05:37;7.81;91.03
70708;SHT30;58277;47.316;18.908;2022-11-15T14:08:11;7.78;90.91
70708;SHT30;58277;47.316;18.908;2022-11-15T14:10:36;7.90;91.04
70708;SHT30;58277;47.316;18.908;2022-11-15T14:13:00;7.98;91.09
70708;SHT30;58277;47.316;18.908;2022-11-15T14:15:37;7.99;90.60
70708;SHT30;58277;47.316;18.908;2022-11-15T14:18:01;8.02;90.75
70708;SHT30;58277;47.316;18.908;2022-11-15T14:22:58;7.93;90.43
70708;SHT30;58277;47.316;18.908;2022-11-15T14:25:33;7.94;90.59
70708;SHT30;58277;47.316;18.908;2022-11-15T14:30:31;7.98;90.63
70708;SHT30;58277;47.316;18.908;2022-11-15T14:32:54;8.04;90.80
70708;SHT30;58277;47.316;18.908;2022-11-15T14:35:19;8.09;90.50
70708;SHT30;58277;47.316;18.908;2022-11-15T14:37:43;8.09;90.67
70708;SHT30;58277;47.316;18.908;2022-11-15T14:40:06;8.02;90.52
70708;SHT30;58277;47.316;18.908;2022-11-15T14:42:32;8.05;90.62
70708;SHT30;58277;47.316;18.908;2022-11-15T14:44:54;7.95;90.55
70708;SHT30;58277;47.316;18.908;2022-11-15T14:47:18;7.81;90.64
70708;SHT30;58277;47.316;18.908;2022-11-15T14:49:41;7.83;91.09
70708;SHT30;58277;47.316;18.908;2022-11-15T14:52:28;7.81;91.25
70708;SHT30;58277;47.316;18.908;2022-11-15T14:54:55;7.78;91.44
70708;SHT30;58277;47.316;18.908;2022-11-15T14:57:18;7.81;91.54
70708;SHT30;58277;47.316;18.908;2022-11-15T14:59:41;7.93;91.04
70708;SHT30;58277;47.316;18.908;2022-11-15T15:02:14;7.94;91.02
70708;SHT30;58277;47.316;18.908;2022-11-15T15:04:38;7.83;91.36
70708;SHT30;58277;47.316;18.908;2022-11-15T15:07:00;7.83;91.28
70708;SHT30;58277;47.316;18.908;2022-11-15T15:09:23;7.97;91.14
70708;SHT30;58277;47.316;18.908;2022-11-15T15:11:46;7.87;91.07
70708;SHT30;58277;47.316;18.908;2022-11-15T15:14:09;7.88;91.24
70708;SHT30;58277;47.316;18.908;2022-11-15T15:16:31;7.91;91.25
70708;SHT30;58277;47.316;18.908;2022-11-15T15:18:54;8.01;91.12
70708;SHT30;58277;47.316;18.908;2022-11-15T15:21:20;8.12;90.73
70708;SHT30;58277;47.316;18.908;2022-11-15T15:23:44;8.29;90.72
70708;SHT30;58277;47.316;18.908;2022-11-15T15:26:07;8.36;90.49
70708;SHT30;58277;47.316;18.908;2022-11-15T15:28:29;8.41;90.23
70708;SHT30;58277;47.316;18.908;2022-11-15T15:30:56;8.39;90.37
70708;SHT30;58277;47.316;18.908;2022-11-15T15:33:18;8.38;90.49
70708;SHT30;58277;47.316;18.908;2022-11-15T15:35:41;8.43;90.28
70708;SHT30;58277;47.316;18.908;2022-11-15T15:38:04;8.49;90.10
70708;SHT30;58277;47.316;18.908;2022-11-15T15:40:29;8.38;90.18
70708;SHT30;58277;47.316;18.908;2022-11-15T15:42:52;8.29;90.56
70708;SHT30;58277;47.316;18.908;2022-11-15T15:45:39;8.38;90.51
70708;SHT30;58277;47.316;18.908;2022-11-15T15:48:02;8.31;90.56
70708;SHT30;58277;47.316;18.908;2022-11-15T15:50:33;8.41;90.42
70708;SHT30;58277;47.316;18.908;2022-11-15T15:52:57;8.39;90.33
70708;SHT30;58277;47.316;18.908;2022-11-15T15:55:21;8.49;90.29
70708;SHT30;58277;47.316;18.908;2022-11-15T15:57:43;8.42;90.10
70708;SHT30;58277;47.316;18.908;2022-11-15T16:00:09;8.29;90.55
70708;SHT30;58277;47.316;18.908;2022-11-15T16:02:34;8.43;90.61
70708;SHT30;58277;47.316;18.908;2022-11-15T16:05:02;8.48;90.38
70708;SHT30;58277;47.316;18.908;2022-11-15T16:07:24;8.49;90.15
70708;SHT30;58277;47.316;18.908;2022-11-15T16:09:49;8.45;90.28
70708;SHT30;58277;47.316;18.908;2022-11-15T16:12:28;8.60;90.19
70708;SHT30;58277;47.316;18.908;2022-11-15T16:14:51;8.56;90.34
70708;SHT30;58277;47.316;18.908;2022-11-15T16:17:18;8.60;90.20
70708;SHT30;58277;47.316;18.908;2022-11-15T16:19:43;8.59;90.15
70708;SHT30;58277;47.316;18.908;2022-11-15T16:22:06;8.62;90.09
70708;SHT30;58277;47.316;18.908;2022-11-15T16:24:29;8.66;90.01
70708;SHT30;58277;47.316;18.908;2022-11-15T16:26:52;8.59;90.04
70708;SHT30;58277;47.316;18.908;2022-11-15T16:29:14;8.49;90.47
70708;SHT30;58277;47.316;18.908;2022-11-15T16:31:37;8.57;90.59
70708;SHT30;58277;47.316;18.908;2022-11-15T16:34:00;8.45;90.85
70708;SHT30;58277;47.316;18.908;2022-11-15T16:36:25;8.53;90.86
70708;SHT30;58277;47.316;18.908;2022-11-15T16:38:52;8.52;90.78
70708;SHT30;58277;47.316;18.908;2022-11-15T16:41:15;8.33;91.08
70708;SHT30;58277;47.316;18.908;2022-11-15T16:43:40;8.24;91.64
70708;SHT30;58277;47.316;18.908;2022-11-15T16:46:20;8.29;91.59
70708;SHT30;58277;47.316;18.908;2022-11-15T16:48:43;8.41;91.31
70708;SHT30;58277;47.316;18.908;2022-11-15T16:51:06;8.33;91.34
70708;SHT30;58277;47.316;18.908;2022-11-15T16:53:29;8.50;90.99
70708;SHT30;58277;47.316;18.908;2022-11-15T16:55:52;8.56;90.73
70708;SHT30;58277;47.316;18.908;2022-11-15T16:58:14;8.42;91.10
70708;SHT30;58277;47.316;18.908;2022-11-15T17:00:37;8.39;91.14
70708;SHT30;58277;47.316;18.908;2022-11-15T17:03:00;8.41;91.17
70708;SHT30;58277;47.316;18.908;2022-11-15T17:05:23;8.31;91.27
70708;SHT30;58277;47.316;18.908;2022-11-15T17:07:50;8.43;91.29
70708;SHT30;58277;47.316;18.908;2022-11-15T17:10:16;8.46;91.10
70708;SHT30;58277;47.316;18.908;2022-11-15T17:12:39;8.42;91.08
70708;SHT30;58277;47.316;18.908;2022-11-15T17:15:04;8.35;91.27
70708;SHT30;58277;47.316;18.908;2022-11-15T17:17:27;8.39;91.37
70708;SHT30;58277;47.316;18.908;2022-11-15T17:19:50;8.45;91.13
70708;SHT30;58277;47.316;18.908;2022-11-15T17:22:14;8.48;91.08
70708;SHT30;58277;47.316;18.908;2022-11-15T17:24:36;8.62;90.70
70708;SHT30;58277;47.316;18.908;2022-11-15T17:26:59;8.70;90.32
70708;SHT30;58277;47.316;18.908;2022-11-15T17:29:22;8.52;90.79
70708;SHT30;58277;47.316;18.908;2022-11-15T17:31:45;8.67;90.47
70708;SHT30;58277;47.316;18.908;2022-11-15T17:34:08;8.76;90.21
70708;SHT30;58277;47.316;18.908;2022-11-15T17:36:31;8.80;90.10
70708;SHT30;58277;47.316;18.908;2022-11-15T17:38:54;8.80;90.17
70708;SHT30;58277;47.316;18.908;2022-11-15T17:41:21;8.73;90.58
70708;SHT30;58277;47.316;18.908;2022-11-15T17:43:44;8.73;90.62
70708;SHT30;58277;47.316;18.908;2022-11-15T17:46:10;8.66;90.71
70708;SHT30;58277;47.316;18.908;2022-11-15T17:48:33;8.80;90.39
70708;SHT30;58277;47.316;18.908;2022-11-15T17:51:01;8.87;90.18
70708;SHT30;58277;47.316;18.908;2022-11-15T17:53:25;8.77;90.45
70708;SHT30;58277;47.316;18.908;2022-11-15T17:55:48;8.79;90.25
70708;SHT30;58277;47.316;18.908;2022-11-15T17:58:11;8.54;90.83
70708;SHT30;58277;47.316;18.908;2022-11-15T18:00:33;8.57;91.10
70708;SHT30;58277;47.316;18.908;2022-11-15T18:02:59;8.74;90.65
70708;SHT30;58277;47.316;18.908;2022-11-15T18:05:21;8.66;90.87
70708;SHT30;58277;47.316;18.908;2022-11-15T18:07:44;8.73;90.55
70708;SHT30;58277;47.316;18.908;2022-11-15T18:10:07;8.59;90.88
70708;SHT30;58277;47.316;18.908;2022-11-15T18:12:30;8.63;90.99
70708;SHT30;58277;47.316;18.908;2022-11-15T18:14:53;8.60;91.08
70708;SHT30;58277;47.316;18.908;2022-11-15T18:17:15;8.66;91.01
70708;SHT30;58277;47.316;18.908;2022-11-15T18:19:41;8.63;90.78
70708;SHT30;58277;47.316;18.908;2022-11-15T18:22:03;8.48;91.11
70708;SHT30;58277;47.316;18.908;2022-11-15T18:24:33;8.50;91.56
70708;SHT30;58277;47.316;18.908;2022-11-15T18:26:57;8.45;91.71
70708;SHT30;58277;47.316;18.908;2022-11-15T18:29:21;8.41;91.54
70708;SHT30;58277;47.316;18.908;2022-11-15T18:31:46;8.43;91.62
70708;SHT30;58277;47.316;18.908;2022-11-15T18:34:11;8.28;92.18
70708;SHT30;58277;47.316;18.908;2022-11-15T18:36:34;8.38;92.16
70708;SHT30;58277;47.316;18.908;2022-11-15T18:38:59;8.39;91.89
70708;SHT30;58277;47.316;18.908;2022-11-15T18:41:24;8.29;92.02